createdAt,value
2018-05-23T00:05:28.500Z,94.60
2018-05-23T00:09:22.008Z,94.70
2018-05-23T00:13:15.909Z,94.80
2018-05-23T00:17:09.334Z,94.70
2018-05-23T00:21:02.838Z,94.80
2018-05-23T00:24:56.271Z,94.70
2018-05-23T00:28:49.638Z,94.70
2018-05-23T00:32:42.982Z,94.60
2018-05-23T00:36:36.393Z,94.60
2018-05-23T00:40:29.600Z,94.60
2018-05-23T00:44:22.544Z,94.40
2018-05-23T00:48:15.733Z,94.20
2018-05-23T00:52:08.898Z,94.20
2018-05-23T00:56:02.057Z,94.20
2018-05-23T00:59:56.009Z,94.40
2018-05-23T01:03:49.148Z,94.60
2018-05-23T01:07:42.442Z,95.00
2018-05-23T01:11:35.703Z,95.00
2018-05-23T01:15:28.842Z,95.20
2018-05-23T01:19:22.098Z,95.20
2018-05-23T01:23:15.297Z,95.30
2018-05-23T01:27:08.537Z,95.50
2018-05-23T01:31:01.747Z,95.50
2018-05-23T01:34:54.992Z,95.70
2018-05-23T01:38:47.937Z,95.80
2018-05-23T01:42:41.902Z,95.90
2018-05-23T01:46:35.809Z,96.00
2018-05-23T01:50:29.015Z,96.00
2018-05-23T01:54:22.338Z,95.90
2018-05-23T01:58:15.585Z,95.80
2018-05-23T02:02:09.716Z,95.80
2018-05-23T02:06:03.019Z,95.70
2018-05-23T02:09:57.001Z,95.70
2018-05-23T02:13:50.308Z,95.60
2018-05-23T02:17:44.999Z,95.50
2018-05-23T02:21:38.638Z,95.50
2018-05-23T02:25:31.906Z,95.60
2018-05-23T02:29:25.138Z,95.30
2018-05-23T02:33:19.469Z,94.90
2018-05-23T02:37:12.681Z,94.90
2018-05-23T02:41:05.937Z,94.80
2018-05-23T02:45:01.877Z,94.90
2018-05-23T02:48:56.540Z,95.00
2018-05-23T02:52:49.812Z,95.00
2018-05-23T02:56:43.060Z,94.30
2018-05-23T03:00:36.039Z,93.90
2018-05-23T03:04:30.022Z,93.70
2018-05-23T03:08:23.237Z,93.70
2018-05-23T03:12:16.419Z,93.90
2018-05-23T03:16:09.617Z,93.40
2018-05-23T03:20:03.059Z,93.40
2018-05-23T03:23:57.019Z,93.70
2018-05-23T03:27:50.757Z,93.70
2018-05-23T03:31:45.513Z,93.80
2018-05-23T03:35:38.551Z,94.10
2018-05-23T03:39:31.917Z,93.90
2018-05-23T03:43:25.211Z,93.90
2018-05-23T03:47:18.701Z,94.00
2018-05-23T03:51:11.928Z,94.00
2018-05-23T04:04:11.412Z,95.50
2018-05-23T04:08:05.378Z,95.60
2018-05-23T04:11:59.331Z,96.60
2018-05-23T04:15:52.459Z,96.60
2018-05-23T04:19:46.865Z,97.00
2018-05-23T04:23:40.062Z,97.00
2018-05-23T04:27:37.688Z,96.80
2018-05-23T04:31:31.720Z,97.00
2018-05-23T04:35:25.081Z,97.80
2018-05-23T04:39:18.216Z,98.30
2018-05-23T04:43:11.350Z,98.10
2018-05-23T04:47:06.476Z,97.20
2018-05-23T04:51:01.178Z,97.30
2018-05-23T04:54:54.392Z,97.50
2018-05-23T04:58:47.543Z,97.00
2018-05-23T05:02:40.735Z,97.70
2018-05-23T05:06:34.755Z,97.90
2018-05-23T05:14:39.587Z,97.30
2018-05-23T05:18:33.852Z,96.90
2018-05-23T05:22:27.384Z,97.10
2018-05-23T05:26:21.472Z,97.00
2018-05-23T05:30:15.460Z,97.30
2018-05-23T05:34:10.155Z,97.30
2018-05-23T05:38:04.930Z,97.60
2018-05-23T05:41:58.821Z,97.20
2018-05-23T05:45:53.533Z,96.90
2018-05-23T05:49:48.024Z,96.90
2018-05-23T05:53:43.272Z,96.50
2018-05-23T05:57:36.829Z,96.60
2018-05-23T06:01:30.335Z,96.90
2018-05-23T06:05:26.829Z,97.00
2018-05-23T06:13:33.944Z,97.00
2018-05-23T06:17:28.002Z,96.00
2018-05-23T06:21:22.533Z,96.00
2018-05-23T06:25:19.186Z,95.70
2018-05-23T06:33:38.369Z,96.00
2018-05-23T06:37:32.008Z,95.80
2018-05-23T06:41:29.058Z,94.70
2018-05-23T06:45:23.767Z,94.70
2018-05-23T06:57:54.107Z,94.30
2018-05-23T07:02:07.569Z,93.90
2018-05-23T07:06:10.318Z,93.30
2018-05-23T07:10:13.734Z,93.20
2018-05-23T07:14:07.020Z,93.50
2018-05-23T07:18:01.538Z,93.50
2018-05-23T07:21:54.652Z,93.30
2018-05-23T07:25:50.390Z,94.50
2018-05-23T07:29:43.525Z,94.50
2018-05-23T07:33:36.937Z,95.00
2018-05-23T07:37:37.409Z,94.30
2018-05-23T07:41:30.938Z,93.70
2018-05-23T07:45:24.480Z,93.20
2018-05-23T07:49:45.556Z,93.30
2018-05-23T07:53:45.582Z,92.80
2018-05-23T07:57:40.198Z,92.40
2018-05-23T08:01:33.569Z,92.30
2018-05-23T08:05:27.325Z,91.40
2018-05-23T08:09:22.458Z,90.40
2018-05-23T08:13:18.985Z,90.60
2018-05-23T08:17:12.457Z,90.60
2018-05-23T08:21:06.527Z,87.80
2018-05-23T08:24:59.737Z,89.30
2018-05-23T08:28:55.331Z,85.40
2018-05-23T08:32:55.857Z,85.10
2018-05-23T08:36:49.077Z,84.00
2018-05-23T08:40:42.998Z,85.00
2018-05-23T08:44:36.808Z,86.60
2018-05-23T08:52:45.453Z,83.00
2018-05-23T08:56:39.523Z,82.90
2018-05-23T09:22:27.546Z,75.40
2018-05-23T09:26:21.580Z,75.70
2018-05-23T09:30:15.330Z,72.30
2018-05-23T09:34:09.102Z,71.50
2018-05-23T09:38:21.910Z,71.80
2018-05-23T09:46:39.896Z,70.90
2018-05-23T09:50:34.577Z,70.00
2018-05-23T09:54:29.417Z,70.10
2018-05-23T09:58:24.804Z,69.80
2018-05-23T10:10:22.516Z,65.80
2018-05-23T10:14:15.895Z,65.80
2018-05-23T10:18:23.953Z,63.20
2018-05-23T10:41:31.509Z,56.00
2018-05-23T10:45:27.697Z,55.40
2018-05-23T10:49:21.687Z,56.50
2018-05-23T10:53:20.067Z,56.30
2018-05-23T10:57:14.391Z,55.20
2018-05-23T11:01:09.512Z,55.20
2018-05-23T11:05:03.788Z,55.30
2018-05-23T11:08:57.496Z,53.90
2018-05-23T11:12:50.782Z,54.10
2018-05-23T11:16:52.238Z,54.40
2018-05-23T11:55:41.181Z,55.90
2018-05-23T12:03:54.193Z,59.10
2018-05-23T12:12:14.951Z,64.20
2018-05-23T12:20:19.909Z,65.70
2018-05-23T12:24:13.334Z,63.60
2018-05-23T12:28:07.631Z,62.30
2018-05-23T12:32:02.285Z,63.20
2018-05-23T12:35:56.089Z,64.60
2018-05-23T12:39:50.202Z,64.80
2018-05-23T12:43:43.873Z,60.20
2018-05-23T12:47:37.197Z,63.20
2018-05-23T12:51:31.503Z,61.40
2018-05-23T12:55:24.715Z,59.10
2018-05-23T12:59:18.405Z,59.70
2018-05-23T13:03:11.741Z,57.90
2018-05-23T13:07:05.099Z,55.10
2018-05-23T13:10:59.046Z,54.40
2018-05-23T13:14:52.435Z,54.20
2018-05-23T13:18:49.193Z,53.80
2018-05-23T13:22:42.407Z,53.70
2018-05-23T13:26:35.643Z,54.00
2018-05-23T13:30:28.788Z,54.90
2018-05-23T13:34:21.973Z,54.10
2018-05-23T13:38:15.514Z,54.80
2018-05-23T13:42:08.692Z,55.20
2018-05-23T13:50:22.268Z,54.40
2018-05-23T13:54:19.120Z,53.90
2018-05-23T13:58:13.064Z,53.90
2018-05-23T14:02:06.515Z,54.30
2018-05-23T14:05:59.926Z,54.70
2018-05-23T14:09:53.164Z,54.60
2018-05-23T14:13:46.341Z,55.60
2018-05-23T14:17:43.213Z,55.30
2018-05-23T14:21:39.272Z,56.00
2018-05-23T14:25:33.411Z,56.90
2018-05-23T14:29:27.461Z,57.00
2018-05-23T14:33:21.838Z,57.00
2018-05-23T14:37:15.042Z,57.30
2018-05-23T14:41:09.176Z,57.80
2018-05-23T14:45:02.518Z,57.30
2018-05-23T14:48:55.853Z,55.80
2018-05-23T14:52:48.827Z,54.90
2018-05-23T14:56:42.184Z,54.90
2018-05-23T15:00:35.590Z,55.70
2018-05-23T15:04:30.801Z,55.40
2018-05-23T15:08:24.550Z,55.90
2018-05-23T15:12:18.731Z,56.00
2018-05-23T15:16:12.351Z,55.70
2018-05-23T15:20:05.974Z,55.50
2018-05-23T15:24:01.000Z,55.70
2018-05-23T15:27:55.238Z,56.50
2018-05-23T15:36:19.379Z,55.60
2018-05-23T15:40:14.822Z,56.10
2018-05-23T15:44:24.884Z,55.30
2018-05-23T15:48:18.676Z,54.60
2018-05-23T16:35:32.811Z,48.10
2018-05-23T16:39:26.137Z,48.60
2018-05-23T16:47:58.593Z,48.40
2018-05-23T17:08:50.128Z,48.40
2018-05-23T17:12:44.232Z,48.40
2018-05-23T17:16:39.340Z,48.30
2018-05-23T17:20:35.550Z,48.40
2018-05-23T17:24:31.836Z,48.70
2018-05-23T17:28:39.704Z,48.30
2018-05-23T17:32:34.235Z,48.40
2018-05-23T17:36:27.806Z,47.30
2018-05-23T17:40:41.721Z,47.00
2018-05-23T17:44:36.077Z,46.20
2018-05-23T17:48:29.629Z,46.60
2018-05-23T17:52:24.160Z,46.20
2018-05-23T17:56:17.680Z,46.40
2018-05-23T18:00:11.438Z,46.80
2018-05-23T18:04:05.624Z,47.30
2018-05-23T18:08:01.522Z,47.20
2018-05-23T18:11:54.649Z,47.20
2018-05-23T18:15:48.492Z,47.50
2018-05-23T18:19:45.159Z,47.90
2018-05-23T18:23:42.331Z,48.00
2018-05-23T18:27:37.831Z,48.40
2018-05-23T18:31:31.903Z,48.10
2018-05-23T18:35:25.111Z,48.10
2018-05-23T18:39:18.101Z,48.30
2018-05-23T18:43:11.249Z,48.40
2018-05-23T18:47:04.485Z,48.80
2018-05-23T18:50:58.469Z,49.60
2018-05-23T18:54:52.394Z,49.60
2018-05-23T18:58:45.587Z,49.60
2018-05-23T19:02:39.528Z,49.30
2018-05-23T19:06:32.860Z,49.30
2018-05-23T19:10:28.198Z,48.70
2018-05-23T19:14:23.449Z,48.70
2018-05-23T19:18:18.285Z,48.50
2018-05-23T19:22:11.509Z,48.50
2018-05-23T19:26:04.694Z,48.60
2018-05-23T19:29:57.825Z,48.50
2018-05-23T19:33:50.926Z,48.70
2018-05-23T19:37:44.088Z,49.20
2018-05-23T19:41:37.842Z,49.40
2018-05-23T19:45:31.169Z,49.70
2018-05-23T19:49:24.949Z,50.00
2018-05-23T19:53:19.064Z,50.60
2018-05-23T19:57:12.422Z,50.60
2018-05-23T20:01:05.673Z,50.90
2018-05-23T20:04:58.996Z,51.30
2018-05-23T20:08:52.203Z,51.40
2018-05-23T20:12:45.423Z,51.60
2018-05-23T20:16:38.916Z,51.80
2018-05-23T20:20:32.288Z,52.10
2018-05-23T20:24:25.546Z,52.50
2018-05-23T20:28:20.494Z,53.30
2018-05-23T20:32:15.090Z,53.00
2018-05-23T20:36:09.059Z,53.90
2018-05-23T20:40:02.060Z,53.90
2018-05-23T20:44:00.353Z,54.80
2018-05-23T20:52:17.703Z,55.00
2018-05-23T21:00:37.090Z,55.80
2018-05-23T21:04:30.381Z,56.10
2018-05-23T21:08:23.569Z,56.40
2018-05-23T21:12:17.674Z,56.70
2018-05-23T21:16:11.252Z,56.80
2018-05-23T21:20:05.212Z,57.60
2018-05-23T21:23:58.447Z,57.80
2018-05-23T21:27:51.821Z,57.80
2018-05-23T21:31:44.946Z,58.10
2018-05-23T21:35:38.936Z,58.80
2018-05-23T21:39:32.769Z,59.20
2018-05-23T21:43:26.048Z,59.20
2018-05-23T21:47:19.292Z,59.30
2018-05-23T21:51:12.515Z,59.20
2018-05-23T21:55:05.854Z,59.40
2018-05-23T21:59:00.251Z,59.50
2018-05-23T22:02:53.372Z,59.50
2018-05-23T22:06:46.494Z,59.10
2018-05-23T22:10:39.652Z,59.10
2018-05-23T22:14:32.828Z,59.00
2018-05-23T22:18:26.007Z,59.60
2018-05-23T22:22:19.421Z,60.50
2018-05-23T22:26:11.912Z,60.90
2018-05-23T22:30:05.799Z,61.80
2018-05-23T22:33:59.328Z,62.40
2018-05-23T22:37:52.505Z,62.80
2018-05-23T22:41:47.536Z,63.00
2018-05-23T22:45:40.574Z,63.40
2018-05-23T22:49:33.774Z,63.60
2018-05-23T22:53:26.895Z,63.60
2018-05-23T22:57:20.298Z,63.50
2018-05-23T23:01:16.721Z,63.60
2018-05-23T23:05:09.853Z,63.60
2018-05-23T23:09:02.987Z,63.60
2018-05-23T23:12:56.251Z,63.60
2018-05-23T23:16:49.740Z,63.80
2018-05-23T23:20:43.766Z,64.00
2018-05-23T23:24:36.981Z,64.00
2018-05-23T23:28:30.322Z,64.30
2018-05-23T23:32:24.281Z,64.70
2018-05-23T23:36:17.447Z,64.70
2018-05-23T23:40:11.524Z,64.90
2018-05-23T23:44:04.779Z,64.90
2018-05-23T23:47:58.716Z,65.50
2018-05-23T23:51:51.835Z,66.00
2018-05-23T23:55:45.043Z,65.90
2018-05-23T23:59:38.225Z,65.50
